ADDS METAR Data INFO
IDs: Format: Raw Decoded Include TAF

Data at: 1340 UTC 20 Aug 2017

KPAE 201253Z AUTO 36004KT 10SM CLR 12/10 A3017 RMK AO2 SLP216 T01220100

KPAE 201124Z 2012/2112 35006KT P6SM SCT250
  FM201900 32005KT P6SM SCT250
  FM210500 36008KT P6SM SCT250


KAWO 201256Z AUTO 31003KT 10SM CLR 09/08 A3018 RMK AO2 SLP222 T00940083
No TAF found for KAWO

KBFI 201253Z 34003KT 10SM SCT150 14/11 A3016 RMK AO2 SLP213 T01440111

KBFI 201124Z 2012/2112 VRB03KT P6SM SCT250
  FM202000 32005KT P6SM SCT250
  FM210600 VRB03KT P6SM SCT250


KRNT 201253Z AUTO 00000KT 8SM CLR 13/10 A3016 RMK AO2 SLP217 T01330100
No TAF found for KRNT

KSEA 201253Z 01005KT 10SM FEW100 SCT250 14/09 A3016 RMK AO2 SLP218 T01390094

KSEA 201124Z 2012/2118 02008KT P6SM SCT250
  FM201900 32008KT P6SM SCT250
  FM210500 02008KT P6SM SCT250